sensor_id;sensor_type;location;lat;lon;timestamp;P1;durP1;ratioP1;P2;durP2;ratioP2
80233;SDS011;69712;42.142;24.766;2024-03-23T00:51:18;15.88;;;8.65;;
80233;SDS011;69712;42.142;24.766;2024-03-23T00:53:44;13.90;;;8.07;;
80233;SDS011;69712;42.142;24.766;2024-03-23T00:56:10;18.13;;;8.27;;
80233;SDS011;69712;42.142;24.766;2024-03-23T00:58:36;15.18;;;7.90;;
80233;SDS011;69712;42.142;24.766;2024-03-23T01:01:01;17.83;;;8.82;;
80233;SDS011;69712;42.142;24.766;2024-03-23T01:03:29;15.10;;;8.82;;
80233;SDS011;69712;42.142;24.766;2024-03-23T01:05:58;17.05;;;8.90;;
80233;SDS011;69712;42.142;24.766;2024-03-23T01:08:28;14.00;;;8.45;;
80233;SDS011;69712;42.142;24.766;2024-03-23T01:10:57;14.32;;;8.30;;
80233;SDS011;69712;42.142;24.766;2024-03-23T01:13:24;14.52;;;8.68;;
80233;SDS011;69712;42.142;24.766;2024-03-23T01:15:51;16.08;;;8.25;;
80233;SDS011;69712;42.142;24.766;2024-03-23T01:18:18;17.92;;;8.55;;
80233;SDS011;69712;42.142;24.766;2024-03-23T01:20:44;18.88;;;8.75;;
80233;SDS011;69712;42.142;24.766;2024-03-23T01:23:10;17.75;;;9.07;;
80233;SDS011;69712;42.142;24.766;2024-03-23T01:25:36;15.13;;;9.25;;
80233;SDS011;69712;42.142;24.766;2024-03-23T01:28:02;14.57;;;8.95;;
80233;SDS011;69712;42.142;24.766;2024-03-23T01:30:28;13.82;;;8.50;;
80233;SDS011;69712;42.142;24.766;2024-03-23T01:32:55;15.73;;;9.43;;
80233;SDS011;69712;42.142;24.766;2024-03-23T01:35:21;13.68;;;8.48;;
80233;SDS011;69712;42.142;24.766;2024-03-23T01:37:47;20.58;;;8.95;;
80233;SDS011;69712;42.142;24.766;2024-03-23T01:40:13;16.60;;;10.00;;
80233;SDS011;69712;42.142;24.766;2024-03-23T01:42:39;16.77;;;9.60;;
80233;SDS011;69712;42.142;24.766;2024-03-23T01:45:08;18.40;;;10.43;;
80233;SDS011;69712;42.142;24.766;2024-03-23T01:47:37;21.30;;;10.35;;
80233;SDS011;69712;42.142;24.766;2024-03-23T01:50:03;15.90;;;10.00;;
80233;SDS011;69712;42.142;24.766;2024-03-23T01:52:29;17.23;;;10.35;;
80233;SDS011;69712;42.142;24.766;2024-03-23T01:54:55;16.42;;;10.05;;
80233;SDS011;69712;42.142;24.766;2024-03-23T01:57:21;18.40;;;10.98;;
80233;SDS011;69712;42.142;24.766;2024-03-23T01:59:47;19.30;;;10.60;;
80233;SDS011;69712;42.142;24.766;2024-03-23T02:02:13;21.85;;;11.10;;
80233;SDS011;69712;42.142;24.766;2024-03-23T02:04:39;19.88;;;11.50;;
80233;SDS011;69712;42.142;24.766;2024-03-23T02:07:08;18.52;;;10.98;;
80233;SDS011;69712;42.142;24.766;2024-03-23T02:09:52;22.27;;;11.65;;
80233;SDS011;69712;42.142;24.766;2024-03-23T02:12:18;23.05;;;11.40;;
80233;SDS011;69712;42.142;24.766;2024-03-23T02:14:44;21.50;;;12.27;;
80233;SDS011;69712;42.142;24.766;2024-03-23T02:17:10;17.85;;;11.70;;
80233;SDS011;69712;42.142;24.766;2024-03-23T02:19:35;22.38;;;12.02;;
80233;SDS011;69712;42.142;24.766;2024-03-23T02:22:01;23.60;;;12.45;;
80233;SDS011;69712;42.142;24.766;2024-03-23T02:24:29;21.50;;;11.95;;
80233;SDS011;69712;42.142;24.766;2024-03-23T02:26:54;20.88;;;12.98;;
80233;SDS011;69712;42.142;24.766;2024-03-23T02:29:20;21.08;;;11.48;;
80233;SDS011;69712;42.142;24.766;2024-03-23T02:31:46;22.65;;;12.45;;
80233;SDS011;69712;42.142;24.766;2024-03-23T02:34:11;23.83;;;12.15;;
80233;SDS011;69712;42.142;24.766;2024-03-23T02:36:37;24.65;;;12.27;;
80233;SDS011;69712;42.142;24.766;2024-03-23T02:39:03;22.50;;;11.85;;
80233;SDS011;69712;42.142;24.766;2024-03-23T02:41:29;19.90;;;12.13;;
80233;SDS011;69712;42.142;24.766;2024-03-23T02:43:55;24.38;;;12.57;;
80233;SDS011;69712;42.142;24.766;2024-03-23T02:46:20;23.27;;;12.40;;
80233;SDS011;69712;42.142;24.766;2024-03-23T02:48:48;23.80;;;12.70;;
80233;SDS011;69712;42.142;24.766;2024-03-23T02:51:14;20.73;;;12.45;;
80233;SDS011;69712;42.142;24.766;2024-03-23T02:53:40;23.77;;;12.38;;
80233;SDS011;69712;42.142;24.766;2024-03-23T02:56:06;21.92;;;12.52;;
80233;SDS011;69712;42.142;24.766;2024-03-23T02:58:32;21.33;;;12.30;;
80233;SDS011;69712;42.142;24.766;2024-03-23T03:00:58;20.70;;;12.60;;
80233;SDS011;69712;42.142;24.766;2024-03-23T03:03:24;19.63;;;12.75;;
80233;SDS011;69712;42.142;24.766;2024-03-23T03:05:56;24.40;;;13.27;;
80233;SDS011;69712;42.142;24.766;2024-03-23T03:08:22;19.50;;;12.15;;
80233;SDS011;69712;42.142;24.766;2024-03-23T03:10:48;21.05;;;12.52;;
80233;SDS011;69712;42.142;24.766;2024-03-23T03:13:15;22.98;;;12.85;;
80233;SDS011;69712;42.142;24.766;2024-03-23T03:15:42;21.10;;;12.70;;
80233;SDS011;69712;42.142;24.766;2024-03-23T03:18:08;18.15;;;12.15;;
80233;SDS011;69712;42.142;24.766;2024-03-23T03:20:36;21.90;;;12.82;;
80233;SDS011;69712;42.142;24.766;2024-03-23T03:23:06;23.35;;;12.73;;
80233;SDS011;69712;42.142;24.766;2024-03-23T03:25:32;21.65;;;12.73;;
80233;SDS011;69712;42.142;24.766;2024-03-23T03:27:58;17.75;;;11.70;;
80233;SDS011;69712;42.142;24.766;2024-03-23T03:30:24;21.15;;;12.30;;
80233;SDS011;69712;42.142;24.766;2024-03-23T03:32:50;21.05;;;12.20;;
80233;SDS011;69712;42.142;24.766;2024-03-23T03:35:18;22.75;;;12.77;;
80233;SDS011;69712;42.142;24.766;2024-03-23T03:37:44;22.00;;;12.55;;
80233;SDS011;69712;42.142;24.766;2024-03-23T03:40:10;23.35;;;12.23;;
80233;SDS011;69712;42.142;24.766;2024-03-23T03:42:36;23.40;;;12.85;;
80233;SDS011;69712;42.142;24.766;2024-03-23T03:45:02;25.35;;;12.90;;
80233;SDS011;69712;42.142;24.766;2024-03-23T03:47:29;23.23;;;13.07;;
80233;SDS011;69712;42.142;24.766;2024-03-23T03:49:55;22.33;;;12.60;;
80233;SDS011;69712;42.142;24.766;2024-03-23T03:52:21;19.95;;;12.57;;
80233;SDS011;69712;42.142;24.766;2024-03-23T03:54:47;21.30;;;13.07;;
80233;SDS011;69712;42.142;24.766;2024-03-23T03:57:13;24.08;;;13.23;;
80233;SDS011;69712;42.142;24.766;2024-03-23T03:59:38;19.88;;;13.02;;
80233;SDS011;69712;42.142;24.766;2024-03-23T04:02:04;25.23;;;14.07;;
80233;SDS011;69712;42.142;24.766;2024-03-23T04:04:30;26.00;;;14.00;;
80233;SDS011;69712;42.142;24.766;2024-03-23T04:06:59;26.15;;;14.10;;
80233;SDS011;69712;42.142;24.766;2024-03-23T04:09:25;26.67;;;15.43;;
80233;SDS011;69712;42.142;24.766;2024-03-23T04:11:52;24.27;;;14.55;;
80233;SDS011;69712;42.142;24.766;2024-03-23T04:14:17;22.17;;;13.93;;
80233;SDS011;69712;42.142;24.766;2024-03-23T04:16:43;25.95;;;14.23;;
80233;SDS011;69712;42.142;24.766;2024-03-23T04:19:09;20.88;;;13.63;;
80233;SDS011;69712;42.142;24.766;2024-03-23T04:21:35;24.67;;;13.35;;
80233;SDS011;69712;42.142;24.766;2024-03-23T04:24:02;21.67;;;13.23;;
80233;SDS011;69712;42.142;24.766;2024-03-23T04:26:28;22.27;;;12.77;;
80233;SDS011;69712;42.142;24.766;2024-03-23T04:28:54;18.40;;;12.32;;
80233;SDS011;69712;42.142;24.766;2024-03-23T04:31:20;22.90;;;12.93;;
80233;SDS011;69712;42.142;24.766;2024-03-23T04:33:49;18.88;;;12.48;;
80233;SDS011;69712;42.142;24.766;2024-03-23T04:36:15;19.27;;;12.02;;
80233;SDS011;69712;42.142;24.766;2024-03-23T04:38:41;17.73;;;11.95;;
80233;SDS011;69712;42.142;24.766;2024-03-23T04:41:07;18.20;;;11.55;;
80233;SDS011;69712;42.142;24.766;2024-03-23T04:43:33;19.17;;;11.02;;
80233;SDS011;69712;42.142;24.766;2024-03-23T04:45:59;16.00;;;10.88;;
80233;SDS011;69712;42.142;24.766;2024-03-23T04:48:25;19.80;;;11.18;;
80233;SDS011;69712;42.142;24.766;2024-03-23T04:50:54;15.57;;;10.75;;
80233;SDS011;69712;42.142;24.766;2024-03-23T04:53:22;18.17;;;11.63;;
80233;SDS011;69712;42.142;24.766;2024-03-23T04:55:53;19.83;;;10.95;;
80233;SDS011;69712;42.142;24.766;2024-03-23T04:58:25;18.85;;;11.68;;
80233;SDS011;69712;42.142;24.766;2024-03-23T05:00:56;18.60;;;11.57;;
80233;SDS011;69712;42.142;24.766;2024-03-23T05:03:22;16.30;;;10.77;;
80233;SDS011;69712;42.142;24.766;2024-03-23T05:05:49;16.98;;;10.65;;
80233;SDS011;69712;42.142;24.766;2024-03-23T05:08:15;16.15;;;10.13;;
80233;SDS011;69712;42.142;24.766;2024-03-23T05:10:42;19.60;;;10.35;;
80233;SDS011;69712;42.142;24.766;2024-03-23T05:13:08;15.75;;;10.25;;
80233;SDS011;69712;42.142;24.766;2024-03-23T05:15:34;16.25;;;9.82;;
80233;SDS011;69712;42.142;24.766;2024-03-23T05:18:00;19.33;;;10.30;;
80233;SDS011;69712;42.142;24.766;2024-03-23T05:20:26;15.95;;;9.70;;
80233;SDS011;69712;42.142;24.766;2024-03-23T05:22:52;13.70;;;8.70;;
80233;SDS011;69712;42.142;24.766;2024-03-23T05:25:18;15.15;;;9.07;;
80233;SDS011;69712;42.142;24.766;2024-03-23T05:27:43;15.52;;;9.60;;
80233;SDS011;69712;42.142;24.766;2024-03-23T05:30:09;14.60;;;9.05;;
80233;SDS011;69712;42.142;24.766;2024-03-23T05:32:36;14.30;;;8.88;;
80233;SDS011;69712;42.142;24.766;2024-03-23T05:35:03;12.93;;;8.55;;
80233;SDS011;69712;42.142;24.766;2024-03-23T05:37:29;15.80;;;8.73;;
80233;SDS011;69712;42.142;24.766;2024-03-23T05:39:58;13.15;;;8.68;;
80233;SDS011;69712;42.142;24.766;2024-03-23T05:42:24;13.32;;;8.85;;
80233;SDS011;69712;42.142;24.766;2024-03-23T05:44:50;15.45;;;8.88;;
80233;SDS011;69712;42.142;24.766;2024-03-23T05:47:17;15.90;;;9.13;;
80233;SDS011;69712;42.142;24.766;2024-03-23T05:49:43;15.18;;;9.43;;
80233;SDS011;69712;42.142;24.766;2024-03-23T05:52:11;15.82;;;9.48;;
80233;SDS011;69712;42.142;24.766;2024-03-23T05:54:37;16.40;;;9.45;;
80233;SDS011;69712;42.142;24.766;2024-03-23T05:57:03;15.45;;;9.27;;
80233;SDS011;69712;42.142;24.766;2024-03-23T05:59:29;13.27;;;8.80;;
80233;SDS011;69712;42.142;24.766;2024-03-23T06:01:55;11.85;;;8.70;;
80233;SDS011;69712;42.142;24.766;2024-03-23T06:04:20;15.52;;;9.70;;
80233;SDS011;69712;42.142;24.766;2024-03-23T06:06:47;15.57;;;9.55;;
80233;SDS011;69712;42.142;24.766;2024-03-23T06:09:13;12.70;;;8.60;;
80233;SDS011;69712;42.142;24.766;2024-03-23T06:11:39;14.68;;;9.25;;
80233;SDS011;69712;42.142;24.766;2024-03-23T06:14:05;17.55;;;9.32;;
80233;SDS011;69712;42.142;24.766;2024-03-23T06:16:31;16.00;;;9.82;;
80233;SDS011;69712;42.142;24.766;2024-03-23T06:18:57;13.98;;;9.88;;
80233;SDS011;69712;42.142;24.766;2024-03-23T06:21:23;14.18;;;9.63;;
80233;SDS011;69712;42.142;24.766;2024-03-23T06:23:52;18.85;;;9.60;;
80233;SDS011;69712;42.142;24.766;2024-03-23T06:26:19;14.57;;;9.65;;
80233;SDS011;69712;42.142;24.766;2024-03-23T06:28:45;16.45;;;9.82;;
80233;SDS011;69712;42.142;24.766;2024-03-23T06:31:14;13.73;;;9.50;;
80233;SDS011;69712;42.142;24.766;2024-03-23T06:33:40;12.27;;;9.50;;
80233;SDS011;69712;42.142;24.766;2024-03-23T06:36:09;14.93;;;9.90;;
80233;SDS011;69712;42.142;24.766;2024-03-23T06:38:36;15.15;;;10.40;;
80233;SDS011;69712;42.142;24.766;2024-03-23T06:41:03;13.48;;;10.40;;
80233;SDS011;69712;42.142;24.766;2024-03-23T06:43:29;12.23;;;9.82;;
80233;SDS011;69712;42.142;24.766;2024-03-23T06:45:55;14.30;;;10.27;;
80233;SDS011;69712;42.142;24.766;2024-03-23T06:48:21;17.33;;;10.23;;
80233;SDS011;69712;42.142;24.766;2024-03-23T06:54:21;18.10;;;10.13;;
80233;SDS011;69712;42.142;24.766;2024-03-23T06:56:54;14.70;;;10.00;;
80233;SDS011;69712;42.142;24.766;2024-03-23T06:59:38;13.77;;;9.82;;
80233;SDS011;69712;42.142;24.766;2024-03-23T07:02:04;17.73;;;9.98;;
80233;SDS011;69712;42.142;24.766;2024-03-23T07:04:33;12.55;;;9.75;;
80233;SDS011;69712;42.142;24.766;2024-03-23T07:06:59;14.80;;;10.20;;
80233;SDS011;69712;42.142;24.766;2024-03-23T07:09:27;19.35;;;10.18;;
80233;SDS011;69712;42.142;24.766;2024-03-23T07:11:54;16.58;;;10.40;;
80233;SDS011;69712;42.142;24.766;2024-03-23T07:14:23;14.93;;;11.00;;
80233;SDS011;69712;42.142;24.766;2024-03-23T07:16:49;14.77;;;10.77;;
80233;SDS011;69712;42.142;24.766;2024-03-23T07:19:15;14.20;;;10.40;;
80233;SDS011;69712;42.142;24.766;2024-03-23T07:21:45;15.88;;;10.88;;
80233;SDS011;69712;42.142;24.766;2024-03-23T07:24:11;13.75;;;10.10;;
80233;SDS011;69712;42.142;24.766;2024-03-23T07:26:37;13.18;;;11.52;;
80233;SDS011;69712;42.142;24.766;2024-03-23T07:29:04;15.75;;;9.90;;
80233;SDS011;69712;42.142;24.766;2024-03-23T07:31:30;15.05;;;11.02;;
80233;SDS011;69712;42.142;24.766;2024-03-23T07:33:56;13.25;;;10.02;;
80233;SDS011;69712;42.142;24.766;2024-03-23T07:36:21;13.82;;;10.82;;
80233;SDS011;69712;42.142;24.766;2024-03-23T07:38:47;13.85;;;10.80;;
80233;SDS011;69712;42.142;24.766;2024-03-23T07:41:17;16.58;;;11.63;;
80233;SDS011;69712;42.142;24.766;2024-03-23T07:43:44;17.90;;;11.20;;
80233;SDS011;69712;42.142;24.766;2024-03-23T07:46:10;16.40;;;10.90;;
80233;SDS011;69712;42.142;24.766;2024-03-23T07:51:59;13.52;;;9.65;;
80233;SDS011;69712;42.142;24.766;2024-03-23T07:54:24;14.55;;;10.30;;
80233;SDS011;69712;42.142;24.766;2024-03-23T07:56:50;13.73;;;10.30;;
80233;SDS011;69712;42.142;24.766;2024-03-23T07:59:16;17.40;;;10.75;;
80233;SDS011;69712;42.142;24.766;2024-03-23T08:01:43;14.82;;;9.25;;
80233;SDS011;69712;42.142;24.766;2024-03-23T08:04:09;13.45;;;9.00;;
80233;SDS011;69712;42.142;24.766;2024-03-23T08:06:35;14.00;;;9.73;;
80233;SDS011;69712;42.142;24.766;2024-03-23T08:09:00;22.13;;;10.07;;
80233;SDS011;69712;42.142;24.766;2024-03-23T08:11:29;15.13;;;9.90;;
80233;SDS011;69712;42.142;24.766;2024-03-23T08:13:56;14.95;;;9.90;;
80233;SDS011;69712;42.142;24.766;2024-03-23T08:16:22;13.90;;;9.35;;
80233;SDS011;69712;42.142;24.766;2024-03-23T08:18:52;14.27;;;9.68;;
80233;SDS011;69712;42.142;24.766;2024-03-23T08:21:17;11.05;;;8.07;;
80233;SDS011;69712;42.142;24.766;2024-03-23T08:23:43;12.82;;;7.90;;
80233;SDS011;69712;42.142;24.766;2024-03-23T08:26:10;15.10;;;8.70;;
80233;SDS011;69712;42.142;24.766;2024-03-23T08:28:37;12.93;;;8.80;;
80233;SDS011;69712;42.142;24.766;2024-03-23T08:31:05;13.43;;;8.75;;
80233;SDS011;69712;42.142;24.766;2024-03-23T08:33:35;13.43;;;8.30;;
80233;SDS011;69712;42.142;24.766;2024-03-23T08:36:02;11.00;;;7.22;;
80233;SDS011;69712;42.142;24.766;2024-03-23T08:38:32;9.43;;;7.00;;
80233;SDS011;69712;42.142;24.766;2024-03-23T08:40:59;10.35;;;7.70;;
80233;SDS011;69712;42.142;24.766;2024-03-23T08:43:33;13.07;;;8.60;;
80233;SDS011;69712;42.142;24.766;2024-03-23T08:46:03;10.82;;;8.80;;
80233;SDS011;69712;42.142;24.766;2024-03-23T08:48:37;15.40;;;8.57;;
80233;SDS011;69712;42.142;24.766;2024-03-23T08:51:04;15.15;;;8.80;;
80233;SDS011;69712;42.142;24.766;2024-03-23T08:53:31;10.68;;;8.75;;
80233;SDS011;69712;42.142;24.766;2024-03-23T08:55:57;11.98;;;8.65;;
80233;SDS011;69712;42.142;24.766;2024-03-23T08:58:24;10.55;;;8.80;;
80233;SDS011;69712;42.142;24.766;2024-03-23T09:00:51;14.07;;;8.93;;
80233;SDS011;69712;42.142;24.766;2024-03-23T09:03:18;13.07;;;8.30;;
80233;SDS011;69712;42.142;24.766;2024-03-23T09:05:43;12.65;;;8.15;;
80233;SDS011;69712;42.142;24.766;2024-03-23T09:08:09;12.15;;;7.70;;
80233;SDS011;69712;42.142;24.766;2024-03-23T09:10:39;10.82;;;8.18;;
80233;SDS011;69712;42.142;24.766;2024-03-23T09:13:05;16.25;;;8.38;;
80233;SDS011;69712;42.142;24.766;2024-03-23T09:15:32;11.65;;;7.93;;
80233;SDS011;69712;42.142;24.766;2024-03-23T09:17:59;12.02;;;7.53;;
80233;SDS011;69712;42.142;24.766;2024-03-23T09:20:25;11.00;;;7.75;;
80233;SDS011;69712;42.142;24.766;2024-03-23T09:22:51;11.38;;;7.95;;
80233;SDS011;69712;42.142;24.766;2024-03-23T09:25:17;11.40;;;8.15;;
80233;SDS011;69712;42.142;24.766;2024-03-23T09:27:45;16.05;;;8.38;;
80233;SDS011;69712;42.142;24.766;2024-03-23T09:30:12;11.38;;;8.02;;
80233;SDS011;69712;42.142;24.766;2024-03-23T09:32:39;11.98;;;8.43;;
80233;SDS011;69712;42.142;24.766;2024-03-23T09:35:06;14.40;;;9.70;;
80233;SDS011;69712;42.142;24.766;2024-03-23T09:37:32;11.10;;;8.57;;
80233;SDS011;69712;42.142;24.766;2024-03-23T09:39:58;11.18;;;9.40;;
80233;SDS011;69712;42.142;24.766;2024-03-23T09:42:24;11.02;;;7.93;;
80233;SDS011;69712;42.142;24.766;2024-03-23T09:44:50;10.85;;;7.57;;
80233;SDS011;69712;42.142;24.766;2024-03-23T09:47:17;11.93;;;7.70;;
80233;SDS011;69712;42.142;24.766;2024-03-23T09:49:43;9.57;;;7.03;;
80233;SDS011;69712;42.142;24.766;2024-03-23T09:52:09;11.57;;;7.53;;
80233;SDS011;69712;42.142;24.766;2024-03-23T09:54:36;10.00;;;7.00;;
80233;SDS011;69712;42.142;24.766;2024-03-23T09:57:01;8.93;;;7.10;;
80233;SDS011;69712;42.142;24.766;2024-03-23T09:59:29;9.27;;;7.53;;
80233;SDS011;69712;42.142;24.766;2024-03-23T10:01:54;8.88;;;7.07;;
80233;SDS011;69712;42.142;24.766;2024-03-23T10:04:40;8.63;;;6.63;;
80233;SDS011;69712;42.142;24.766;2024-03-23T10:07:13;15.52;;;7.63;;
80233;SDS011;69712;42.142;24.766;2024-03-23T10:09:40;10.00;;;6.80;;
80233;SDS011;69712;42.142;24.766;2024-03-23T10:12:09;12.02;;;7.13;;
80233;SDS011;69712;42.142;24.766;2024-03-23T10:14:37;9.55;;;7.13;;
80233;SDS011;69712;42.142;24.766;2024-03-23T10:17:21;8.80;;;7.47;;
80233;SDS011;69712;42.142;24.766;2024-03-23T10:19:49;10.90;;;7.20;;
80233;SDS011;69712;42.142;24.766;2024-03-23T10:22:20;8.40;;;7.00;;
80233;SDS011;69712;42.142;24.766;2024-03-23T10:24:47;9.32;;;7.20;;
80233;SDS011;69712;42.142;24.766;2024-03-23T10:27:23;11.48;;;7.25;;
80233;SDS011;69712;42.142;24.766;2024-03-23T10:29:49;12.20;;;6.80;;
80233;SDS011;69712;42.142;24.766;2024-03-23T10:32:16;13.05;;;7.07;;
80233;SDS011;69712;42.142;24.766;2024-03-23T10:34:43;8.55;;;6.60;;
80233;SDS011;69712;42.142;24.766;2024-03-23T10:37:28;8.73;;;7.00;;
80233;SDS011;69712;42.142;24.766;2024-03-23T10:39:54;11.57;;;6.72;;
80233;SDS011;69712;42.142;24.766;2024-03-23T10:42:20;9.82;;;6.80;;
80233;SDS011;69712;42.142;24.766;2024-03-23T10:44:47;9.65;;;6.38;;
80233;SDS011;69712;42.142;24.766;2024-03-23T10:47:13;7.82;;;6.35;;
80233;SDS011;69712;42.142;24.766;2024-03-23T10:49:39;9.63;;;6.07;;
80233;SDS011;69712;42.142;24.766;2024-03-23T10:52:05;7.43;;;5.90;;
80233;SDS011;69712;42.142;24.766;2024-03-23T10:54:32;9.25;;;6.20;;
80233;SDS011;69712;42.142;24.766;2024-03-23T10:59:50;9.40;;;6.15;;
80233;SDS011;69712;42.142;24.766;2024-03-23T11:02:18;9.70;;;6.28;;
80233;SDS011;69712;42.142;24.766;2024-03-23T11:04:45;10.23;;;6.43;;
80233;SDS011;69712;42.142;24.766;2024-03-23T11:09:58;8.35;;;6.32;;
80233;SDS011;69712;42.142;24.766;2024-03-23T11:12:25;8.82;;;6.05;;
80233;SDS011;69712;42.142;24.766;2024-03-23T11:14:58;8.48;;;6.15;;
80233;SDS011;69712;42.142;24.766;2024-03-23T11:17:25;8.48;;;6.30;;
80233;SDS011;69712;42.142;24.766;2024-03-23T11:19:58;9.15;;;5.95;;
80233;SDS011;69712;42.142;24.766;2024-03-23T11:25:03;9.55;;;5.82;;
80233;SDS011;69712;42.142;24.766;2024-03-23T11:27:37;16.52;;;6.10;;
80233;SDS011;69712;42.142;24.766;2024-03-23T11:32:58;7.45;;;5.93;;
80233;SDS011;69712;42.142;24.766;2024-03-23T11:35:35;6.75;;;5.60;;
80233;SDS011;69712;42.142;24.766;2024-03-23T11:38:10;6.60;;;5.53;;
80233;SDS011;69712;42.142;24.766;2024-03-23T11:40:46;7.97;;;5.53;;
80233;SDS011;69712;42.142;24.766;2024-03-23T11:43:16;6.72;;;5.47;;
80233;SDS011;69712;42.142;24.766;2024-03-23T11:50:41;11.77;;;5.93;;
80233;SDS011;69712;42.142;24.766;2024-03-23T11:53:08;7.13;;;5.90;;
80233;SDS011;69712;42.142;24.766;2024-03-23T11:58:13;14.82;;;6.10;;
80233;SDS011;69712;42.142;24.766;2024-03-23T12:01:00;6.97;;;5.70;;
80233;SDS011;69712;42.142;24.766;2024-03-23T12:03:30;8.87;;;5.83;;
80233;SDS011;69712;42.142;24.766;2024-03-23T12:05:58;9.52;;;5.80;;
80233;SDS011;69712;42.142;24.766;2024-03-23T12:08:31;8.65;;;5.57;;
80233;SDS011;69712;42.142;24.766;2024-03-23T12:11:07;8.23;;;5.95;;
80233;SDS011;69712;42.142;24.766;2024-03-23T12:13:37;9.70;;;5.53;;
80233;SDS011;69712;42.142;24.766;2024-03-23T12:16:10;9.45;;;5.72;;
80233;SDS011;69712;42.142;24.766;2024-03-23T12:18:37;7.65;;;5.47;;
80233;SDS011;69712;42.142;24.766;2024-03-23T12:21:04;10.07;;;5.53;;
80233;SDS011;69712;42.142;24.766;2024-03-23T12:23:31;8.45;;;5.10;;
80233;SDS011;69712;42.142;24.766;2024-03-23T12:25:57;9.55;;;5.38;;
80233;SDS011;69712;42.142;24.766;2024-03-23T12:28:23;7.30;;;5.45;;
80233;SDS011;69712;42.142;24.766;2024-03-23T12:30:50;8.10;;;5.45;;
80233;SDS011;69712;42.142;24.766;2024-03-23T12:33:18;7.78;;;5.60;;
80233;SDS011;69712;42.142;24.766;2024-03-23T12:35:44;6.68;;;5.00;;
80233;SDS011;69712;42.142;24.766;2024-03-23T12:38:09;6.65;;;5.05;;
80233;SDS011;69712;42.142;24.766;2024-03-23T12:40:35;7.90;;;5.57;;
80233;SDS011;69712;42.142;24.766;2024-03-23T12:43:01;8.13;;;5.57;;
80233;SDS011;69712;42.142;24.766;2024-03-23T12:45:27;7.32;;;5.22;;
80233;SDS011;69712;42.142;24.766;2024-03-23T12:47:53;8.55;;;4.97;;
80233;SDS011;69712;42.142;24.766;2024-03-23T12:50:20;8.45;;;5.18;;
80233;SDS011;69712;42.142;24.766;2024-03-23T12:52:46;8.02;;;4.80;;
80233;SDS011;69712;42.142;24.766;2024-03-23T12:55:12;8.65;;;5.38;;
80233;SDS011;69712;42.142;24.766;2024-03-23T12:57:38;7.43;;;5.15;;
80233;SDS011;69712;42.142;24.766;2024-03-23T13:00:04;6.32;;;4.70;;
80233;SDS011;69712;42.142;24.766;2024-03-23T13:02:31;6.47;;;4.90;;
80233;SDS011;69712;42.142;24.766;2024-03-23T13:04:58;9.40;;;4.82;;
80233;SDS011;69712;42.142;24.766;2024-03-23T13:07:24;7.70;;;4.88;;
80233;SDS011;69712;42.142;24.766;2024-03-23T13:09:50;9.27;;;5.07;;
80233;SDS011;69712;42.142;24.766;2024-03-23T13:12:17;7.32;;;5.72;;
80233;SDS011;69712;42.142;24.766;2024-03-23T13:14:46;6.53;;;5.47;;
80233;SDS011;69712;42.142;24.766;2024-03-23T13:17:12;8.18;;;5.57;;
80233;SDS011;69712;42.142;24.766;2024-03-23T13:19:38;8.52;;;5.90;;
80233;SDS011;69712;42.142;24.766;2024-03-23T13:22:04;6.80;;;5.53;;
80233;SDS011;69712;42.142;24.766;2024-03-23T13:24:30;7.25;;;5.97;;
80233;SDS011;69712;42.142;24.766;2024-03-23T13:26:56;7.10;;;5.90;;
80233;SDS011;69712;42.142;24.766;2024-03-23T13:29:23;9.70;;;6.78;;
80233;SDS011;69712;42.142;24.766;2024-03-23T13:31:50;8.15;;;6.25;;
80233;SDS011;69712;42.142;24.766;2024-03-23T13:34:17;10.45;;;7.35;;
80233;SDS011;69712;42.142;24.766;2024-03-23T13:36:44;12.68;;;9.70;;
80233;SDS011;69712;42.142;24.766;2024-03-23T13:39:11;12.70;;;9.43;;
80233;SDS011;69712;42.142;24.766;2024-03-23T13:41:39;14.55;;;9.15;;
80233;SDS011;69712;42.142;24.766;2024-03-23T13:44:06;11.38;;;9.18;;
80233;SDS011;69712;42.142;24.766;2024-03-23T13:46:33;11.75;;;8.63;;
80233;SDS011;69712;42.142;24.766;2024-03-23T13:48:59;15.13;;;12.15;;
80233;SDS011;69712;42.142;24.766;2024-03-23T13:51:26;18.63;;;13.18;;
80233;SDS011;69712;42.142;24.766;2024-03-23T13:53:55;10.63;;;8.32;;
80233;SDS011;69712;42.142;24.766;2024-03-23T13:56:24;9.20;;;7.65;;
80233;SDS011;69712;42.142;24.766;2024-03-23T13:58:50;12.60;;;6.60;;
80233;SDS011;69712;42.142;24.766;2024-03-23T14:01:16;10.20;;;5.78;;
80233;SDS011;69712;42.142;24.766;2024-03-23T14:03:42;7.10;;;5.03;;
80233;SDS011;69712;42.142;24.766;2024-03-23T14:06:09;5.70;;;4.55;;
80233;SDS011;69712;42.142;24.766;2024-03-23T14:08:35;8.30;;;4.50;;
80233;SDS011;69712;42.142;24.766;2024-03-23T14:11:07;5.53;;;4.57;;
80233;SDS011;69712;42.142;24.766;2024-03-23T14:13:34;8.93;;;4.25;;
80233;SDS011;69712;42.142;24.766;2024-03-23T14:16:00;8.00;;;4.78;;
80233;SDS011;69712;42.142;24.766;2024-03-23T14:18:27;6.05;;;4.30;;
80233;SDS011;69712;42.142;24.766;2024-03-23T14:20:56;5.63;;;4.40;;
80233;SDS011;69712;42.142;24.766;2024-03-23T14:23:24;6.75;;;4.75;;
80233;SDS011;69712;42.142;24.766;2024-03-23T14:25:54;7.15;;;4.80;;
80233;SDS011;69712;42.142;24.766;2024-03-23T14:28:24;11.00;;;5.43;;
80233;SDS011;69712;42.142;24.766;2024-03-23T14:30:50;7.47;;;5.30;;
80233;SDS011;69712;42.142;24.766;2024-03-23T14:33:16;7.18;;;4.90;;
80233;SDS011;69712;42.142;24.766;2024-03-23T14:35:43;9.50;;;4.82;;
80233;SDS011;69712;42.142;24.766;2024-03-23T14:38:17;8.00;;;4.88;;
80233;SDS011;69712;42.142;24.766;2024-03-23T14:40:43;5.43;;;3.75;;
80233;SDS011;69712;42.142;24.766;2024-03-23T14:43:09;6.20;;;4.25;;
80233;SDS011;69712;42.142;24.766;2024-03-23T14:45:35;8.88;;;3.70;;
80233;SDS011;69712;42.142;24.766;2024-03-23T14:48:02;5.72;;;4.18;;
80233;SDS011;69712;42.142;24.766;2024-03-23T14:50:27;7.53;;;4.38;;
80233;SDS011;69712;42.142;24.766;2024-03-23T14:52:54;6.78;;;3.92;;
80233;SDS011;69712;42.142;24.766;2024-03-23T14:55:19;4.43;;;3.53;;
80233;SDS011;69712;42.142;24.766;2024-03-23T14:57:45;4.25;;;3.28;;
80233;SDS011;69712;42.142;24.766;2024-03-23T15:00:11;4.93;;;3.58;;
80233;SDS011;69712;42.142;24.766;2024-03-23T15:02:37;5.25;;;3.17;;
80233;SDS011;69712;42.142;24.766;2024-03-23T15:05:04;6.63;;;3.30;;
80233;SDS011;69712;42.142;24.766;2024-03-23T15:07:38;5.68;;;3.20;;
80233;SDS011;69712;42.142;24.766;2024-03-23T15:10:06;6.32;;;3.10;;
80233;SDS011;69712;42.142;24.766;2024-03-23T15:12:33;4.68;;;3.15;;
80233;SDS011;69712;42.142;24.766;2024-03-23T15:14:59;4.97;;;3.53;;
80233;SDS011;69712;42.142;24.766;2024-03-23T15:17:25;6.35;;;3.65;;
80233;SDS011;69712;42.142;24.766;2024-03-23T15:19:51;5.40;;;3.90;;
80233;SDS011;69712;42.142;24.766;2024-03-23T15:22:18;7.50;;;4.32;;
80233;SDS011;69712;42.142;24.766;2024-03-23T15:24:46;6.25;;;3.80;;
80233;SDS011;69712;42.142;24.766;2024-03-23T15:27:12;7.07;;;3.60;;
80233;SDS011;69712;42.142;24.766;2024-03-23T15:29:38;6.45;;;3.60;;
80233;SDS011;69712;42.142;24.766;2024-03-23T15:32:04;4.53;;;3.45;;
80233;SDS011;69712;42.142;24.766;2024-03-23T15:34:30;4.53;;;3.33;;
80233;SDS011;69712;42.142;24.766;2024-03-23T15:36:55;4.72;;;3.67;;